createdAt,value
2016-11-29T00:00:04.816Z,-0.7
2016-11-29T00:00:14.473Z,-0.8
2016-11-29T00:00:24.468Z,-0.7
2016-11-29T00:00:34.459Z,-0.7
2016-11-29T00:00:44.452Z,-0.7
2016-11-29T00:00:54.446Z,-0.8
2016-11-29T00:01:04.438Z,-0.8
2016-11-29T00:01:14.433Z,-0.8
2016-11-29T00:01:24.425Z,-0.8
2016-11-29T00:01:34.418Z,-0.8
2016-11-29T00:01:44.412Z,-0.8
2016-11-29T00:01:54.406Z,-0.8
2016-11-29T00:02:04.397Z,-0.8
2016-11-29T00:02:14.390Z,-0.8
2016-11-29T00:02:24.385Z,-0.8
2016-11-29T00:02:34.377Z,-0.8
2016-11-29T00:02:44.369Z,-0.9
2016-11-29T00:02:54.363Z,-0.8
2016-11-29T00:03:04.357Z,-0.9
2016-11-29T00:03:14.348Z,-0.9
2016-11-29T00:03:24.341Z,-0.9
2016-11-29T00:03:34.335Z,-0.9
2016-11-29T00:03:44.326Z,-0.9
2016-11-29T00:03:54.323Z,-0.9
2016-11-29T00:04:04.317Z,-0.9
2016-11-29T00:04:14.311Z,-0.9
2016-11-29T00:04:24.302Z,-0.9
2016-11-29T00:04:34.298Z,-0.9
2016-11-29T00:04:44.289Z,-0.9
2016-11-29T00:04:54.281Z,-0.9
2016-11-29T00:05:04.273Z,-0.9
2016-11-29T00:05:14.268Z,-0.9
2016-11-29T00:05:24.261Z,-0.9
2016-11-29T00:05:34.255Z,-0.9
2016-11-29T00:05:44.247Z,-0.9
2016-11-29T00:05:54.239Z,-0.9
2016-11-29T00:06:04.236Z,-0.9
2016-11-29T00:06:14.225Z,-0.9
2016-11-29T00:06:24.219Z,-0.9
2016-11-29T00:06:34.214Z,-0.9
2016-11-29T00:06:44.205Z,-0.9
2016-11-29T00:06:54.198Z,-0.9
2016-11-29T00:07:04.192Z,-0.9
2016-11-29T00:07:14.184Z,-0.9
2016-11-29T00:07:24.177Z,-0.8
2016-11-29T00:07:34.170Z,-0.8
2016-11-29T00:07:44.164Z,-0.8
2016-11-29T00:07:54.157Z,-0.8
2016-11-29T00:08:04.150Z,-0.8
2016-11-29T00:08:14.142Z,-0.8
2016-11-29T00:08:24.139Z,-0.8
2016-11-29T00:08:34.130Z,-0.8
2016-11-29T00:08:44.121Z,-0.8
2016-11-29T00:08:54.115Z,-0.8
2016-11-29T00:09:04.106Z,-0.8
2016-11-29T00:09:14.101Z,-0.8
2016-11-29T00:09:24.093Z,-0.8
2016-11-29T00:09:34.088Z,-0.8
2016-11-29T00:09:44.080Z,-0.8
2016-11-29T00:09:54.072Z,-0.7
2016-11-29T00:10:04.066Z,-0.7
2016-11-29T00:10:14.167Z,-0.7
2016-11-29T00:10:24.052Z,-0.7
2016-11-29T00:10:34.045Z,-0.7
2016-11-29T00:10:44.037Z,-0.7
2016-11-29T00:10:54.032Z,-0.7
2016-11-29T00:11:04.024Z,-0.7
2016-11-29T00:11:14.018Z,-0.7
2016-11-29T00:11:24.010Z,-0.7
2016-11-29T00:11:34.003Z,-0.7
2016-11-29T00:11:43.998Z,-0.7
2016-11-29T00:11:53.989Z,-0.6
2016-11-29T00:12:03.981Z,-0.6
2016-11-29T00:12:13.974Z,-0.6
2016-11-29T00:12:23.968Z,-0.6
2016-11-29T00:12:33.960Z,-0.6
2016-11-29T00:12:43.957Z,-0.6
2016-11-29T00:12:53.947Z,-0.6
2016-11-29T00:13:03.940Z,-0.6
2016-11-29T00:13:13.934Z,-0.6
2016-11-29T00:13:23.927Z,-0.6
2016-11-29T00:13:33.919Z,-0.6
2016-11-29T00:13:43.912Z,-0.6
2016-11-29T00:13:53.904Z,-0.6
2016-11-29T00:14:03.898Z,-0.6
2016-11-29T00:14:13.892Z,-0.6
2016-11-29T00:14:23.884Z,-0.6
2016-11-29T00:14:33.878Z,-0.6
2016-11-29T00:14:43.870Z,-0.6
2016-11-29T00:14:53.864Z,-0.6
2016-11-29T00:15:03.857Z,-0.6
2016-11-29T00:15:13.849Z,-0.6
2016-11-29T00:15:23.841Z,-0.6
2016-11-29T00:15:33.835Z,-0.6
2016-11-29T00:15:43.829Z,-0.6
2016-11-29T00:15:53.822Z,-0.6
2016-11-29T00:16:03.813Z,-0.6
2016-11-29T00:16:13.807Z,-0.6
2016-11-29T00:16:23.803Z,-0.6
2016-11-29T00:16:33.792Z,-0.6
2016-11-29T00:16:43.786Z,-0.6
2016-11-29T00:16:53.779Z,-0.6
2016-11-29T00:17:03.772Z,-0.6
2016-11-29T00:17:13.768Z,-0.6
2016-11-29T00:17:23.759Z,-0.6
2016-11-29T00:17:33.768Z,-0.6
2016-11-29T00:17:43.746Z,-0.6
2016-11-29T00:17:53.737Z,-0.6
2016-11-29T00:18:03.729Z,-0.6
2016-11-29T00:18:13.724Z,-0.6
2016-11-29T00:18:23.716Z,-0.6
2016-11-29T00:18:33.708Z,-0.6
2016-11-29T00:18:43.704Z,-0.6
2016-11-29T00:18:53.696Z,-0.6
2016-11-29T00:19:03.690Z,-0.6
2016-11-29T00:19:13.681Z,-0.6
2016-11-29T00:19:23.674Z,-0.6
2016-11-29T00:19:33.669Z,-0.6
2016-11-29T00:19:43.660Z,-0.6
2016-11-29T00:19:53.653Z,-0.6
2016-11-29T00:20:03.647Z,-0.6
2016-11-29T00:20:13.639Z,-0.6
2016-11-29T00:20:23.631Z,-0.6
2016-11-29T00:20:33.625Z,-0.6
2016-11-29T00:20:43.620Z,-0.6
2016-11-29T00:20:53.612Z,-0.6
2016-11-29T00:21:03.602Z,-0.7
2016-11-29T00:21:13.597Z,-0.7
2016-11-29T00:21:23.590Z,-0.6
2016-11-29T00:21:33.919Z,-0.6
2016-11-29T00:21:43.579Z,-0.7
2016-11-29T00:21:53.571Z,-0.6
2016-11-29T00:22:03.563Z,-0.6
2016-11-29T00:22:13.555Z,-0.6
2016-11-29T00:22:23.549Z,-0.6
2016-11-29T00:22:33.651Z,-0.6
2016-11-29T00:22:43.533Z,-0.6
2016-11-29T00:22:53.527Z,-0.6
2016-11-29T00:23:03.520Z,-0.6
2016-11-29T00:23:13.514Z,-0.6
2016-11-29T00:23:23.508Z,-0.7
2016-11-29T00:23:33.501Z,-0.7
2016-11-29T00:23:43.492Z,-0.7
2016-11-29T00:23:53.487Z,-0.7
2016-11-29T00:24:03.478Z,-0.6
2016-11-29T00:24:13.472Z,-0.6
2016-11-29T00:24:23.465Z,-0.6
2016-11-29T00:24:33.475Z,-0.7
2016-11-29T00:24:43.453Z,-0.6
2016-11-29T00:24:53.444Z,-0.7
2016-11-29T00:25:03.436Z,-0.7
2016-11-29T00:25:13.430Z,-0.7
2016-11-29T00:25:23.421Z,-0.7
2016-11-29T00:25:33.416Z,-0.7
2016-11-29T00:25:43.408Z,-0.7
2016-11-29T00:25:53.401Z,-0.7
2016-11-29T00:26:03.394Z,-0.7
2016-11-29T00:26:13.389Z,-0.7
2016-11-29T00:26:23.397Z,-0.7
2016-11-29T00:26:33.375Z,-0.7
2016-11-29T00:26:43.366Z,-0.7
2016-11-29T00:26:53.359Z,-0.7
2016-11-29T00:27:03.352Z,-0.7
2016-11-29T00:27:13.346Z,-0.7
2016-11-29T00:27:23.340Z,-0.7
2016-11-29T00:27:33.330Z,-0.7
2016-11-29T00:27:43.324Z,-0.7
2016-11-29T00:27:53.316Z,-0.7
2016-11-29T00:28:03.310Z,-0.7
2016-11-29T00:28:13.303Z,-0.7
2016-11-29T00:28:23.297Z,-0.7
2016-11-29T00:28:33.290Z,-0.7
2016-11-29T00:28:43.281Z,-0.7
2016-11-29T00:28:53.277Z,-0.7
2016-11-29T00:29:03.270Z,-0.7
2016-11-29T00:29:13.262Z,-0.7
2016-11-29T00:29:23.254Z,-0.7
2016-11-29T00:29:33.248Z,-0.7
2016-11-29T00:29:43.239Z,-0.7
2016-11-29T00:29:53.250Z,-0.7
2016-11-29T00:30:03.229Z,-0.7
2016-11-29T00:30:13.220Z,-0.7
2016-11-29T00:30:23.211Z,-0.7
2016-11-29T00:30:33.207Z,-0.7
2016-11-29T00:30:43.197Z,-0.7
2016-11-29T00:30:53.192Z,-0.7
2016-11-29T00:31:03.184Z,-0.7
2016-11-29T00:31:13.178Z,-0.7
2016-11-29T00:31:23.170Z,-0.7
2016-11-29T00:31:33.164Z,-0.7
2016-11-29T00:31:43.158Z,-0.7
2016-11-29T00:31:53.152Z,-0.7
2016-11-29T00:32:03.141Z,-0.7
2016-11-29T00:32:13.137Z,-0.7
2016-11-29T00:32:23.130Z,-0.7
2016-11-29T00:32:33.121Z,-0.7
2016-11-29T00:32:43.116Z,-0.8
2016-11-29T00:32:53.105Z,-0.8
2016-11-29T00:33:03.099Z,-0.8
2016-11-29T00:33:13.427Z,-0.8
2016-11-29T00:33:23.084Z,-0.8
2016-11-29T00:33:33.078Z,-0.8
2016-11-29T00:33:43.073Z,-0.8
2016-11-29T00:33:53.069Z,-0.8
2016-11-29T00:34:03.085Z,-0.8
2016-11-29T00:34:13.050Z,-0.8
2016-11-29T00:34:23.044Z,-0.8
2016-11-29T00:34:33.040Z,-0.8
2016-11-29T00:34:43.032Z,-0.8
2016-11-29T00:34:53.041Z,-0.8
2016-11-29T00:35:03.018Z,-0.8
2016-11-29T00:35:13.009Z,-0.8
2016-11-29T00:35:23.003Z,-0.8
2016-11-29T00:35:32.995Z,-0.9
2016-11-29T00:35:42.987Z,-0.9
2016-11-29T00:35:52.983Z,-0.9
2016-11-29T00:36:02.974Z,-0.9
2016-11-29T00:36:12.967Z,-0.9
2016-11-29T00:36:22.961Z,-0.8
2016-11-29T00:36:32.955Z,-0.8
2016-11-29T00:36:42.947Z,-0.8
2016-11-29T00:36:52.940Z,-0.8
2016-11-29T00:37:02.932Z,-0.8
2016-11-29T00:37:12.926Z,-0.8
2016-11-29T00:37:22.919Z,-0.8
2016-11-29T00:37:32.913Z,-0.8
2016-11-29T00:37:42.905Z,-0.8
2016-11-29T00:37:52.897Z,-0.9
2016-11-29T00:38:02.892Z,-0.9
2016-11-29T00:38:12.905Z,-0.9
2016-11-29T00:38:22.879Z,-0.9
2016-11-29T00:38:32.870Z,-0.9
2016-11-29T00:38:42.862Z,-0.9
2016-11-29T00:38:52.855Z,-0.9
2016-11-29T00:39:02.849Z,-0.9
2016-11-29T00:39:12.842Z,-0.9
2016-11-29T00:39:22.836Z,-0.9
2016-11-29T00:39:32.829Z,-0.9
2016-11-29T00:39:42.821Z,-0.9
2016-11-29T00:39:52.811Z,-0.9
2016-11-29T00:40:02.804Z,-0.9
2016-11-29T00:40:12.799Z,-0.9
2016-11-29T00:40:22.793Z,-0.9
2016-11-29T00:40:32.785Z,-0.8
2016-11-29T00:40:42.779Z,-0.8
2016-11-29T00:40:52.776Z,-0.8
2016-11-29T00:41:02.763Z,-0.8
2016-11-29T00:41:12.758Z,-0.8
2016-11-29T00:41:22.751Z,-0.8
2016-11-29T00:41:32.747Z,-0.8
2016-11-29T00:41:42.737Z,-0.8
2016-11-29T00:41:52.729Z,-0.8
2016-11-29T00:42:02.721Z,-0.8
2016-11-29T00:42:12.714Z,-0.8
2016-11-29T00:42:22.709Z,-0.8
2016-11-29T00:42:32.701Z,-0.8
2016-11-29T00:42:42.692Z,-0.8
2016-11-29T00:42:52.688Z,-0.8
2016-11-29T00:43:02.682Z,-0.8
2016-11-29T00:43:12.673Z,-0.8
2016-11-29T00:43:22.686Z,-0.9
2016-11-29T00:43:32.660Z,-0.9
2016-11-29T00:43:42.656Z,-0.9
2016-11-29T00:43:52.646Z,-0.9
2016-11-29T00:44:02.639Z,-0.9
2016-11-29T00:44:12.635Z,-0.9
2016-11-29T00:44:22.626Z,-0.9
2016-11-29T00:44:32.953Z,-0.9
2016-11-29T00:44:42.610Z,-0.9
2016-11-29T00:44:52.618Z,-0.9
2016-11-29T00:45:02.597Z,-0.9
2016-11-29T00:45:12.591Z,-0.9
2016-11-29T00:45:22.582Z,-0.9
2016-11-29T00:45:32.575Z,-0.9
2016-11-29T00:45:42.906Z,-0.9
2016-11-29T00:45:52.562Z,-0.9
2016-11-29T00:46:02.555Z,-1
2016-11-29T00:46:12.549Z,-0.9
2016-11-29T00:46:22.539Z,-1
2016-11-29T00:46:32.534Z,-1
2016-11-29T00:46:42.526Z,-1
2016-11-29T00:46:52.518Z,-1
2016-11-29T00:47:02.511Z,-0.9
2016-11-29T00:47:12.505Z,-0.9
2016-11-29T00:47:22.499Z,-0.9
2016-11-29T00:47:32.491Z,-0.9
2016-11-29T00:47:42.487Z,-0.9
2016-11-29T00:47:52.479Z,-1
2016-11-29T00:48:02.470Z,-0.9
2016-11-29T00:48:12.464Z,-0.9
2016-11-29T00:48:22.458Z,-0.9
2016-11-29T00:48:32.450Z,-1
2016-11-29T00:48:42.445Z,-1
2016-11-29T00:48:52.436Z,-1
2016-11-29T00:49:02.535Z,-1
2016-11-29T00:49:12.421Z,-1
2016-11-29T00:49:22.414Z,-1
2016-11-29T00:49:32.407Z,-1
2016-11-29T00:49:42.401Z,-1
2016-11-29T00:49:52.394Z,-1
2016-11-29T00:50:02.723Z,-1
2016-11-29T00:50:12.379Z,-1
2016-11-29T00:50:22.372Z,-1
2016-11-29T00:50:32.366Z,-1
2016-11-29T00:50:42.358Z,-1
2016-11-29T00:50:52.350Z,-1
2016-11-29T00:51:02.346Z,-1
2016-11-29T00:51:12.337Z,-1
2016-11-29T00:51:22.331Z,-1
2016-11-29T00:51:32.323Z,-1
2016-11-29T00:51:42.337Z,-1
2016-11-29T00:51:52.309Z,-1
2016-11-29T00:52:02.302Z,-1
2016-11-29T00:52:12.296Z,-1
2016-11-29T00:52:22.287Z,-1
2016-11-29T00:52:32.282Z,-1
2016-11-29T00:52:42.275Z,-1
2016-11-29T00:52:52.267Z,-1
2016-11-29T00:53:02.260Z,-1
2016-11-29T00:53:12.255Z,-1
2016-11-29T00:53:22.247Z,-0.9
2016-11-29T00:53:32.239Z,-1
2016-11-29T00:53:42.568Z,-1
2016-11-29T00:53:52.224Z,-0.9
2016-11-29T00:54:02.218Z,-0.9
2016-11-29T00:54:12.210Z,-0.9
2016-11-29T00:54:22.205Z,-0.9
2016-11-29T00:54:32.198Z,-0.9
2016-11-29T00:54:42.191Z,-0.9
2016-11-29T00:54:52.184Z,-0.9
2016-11-29T00:55:02.511Z,-0.9
2016-11-29T00:55:12.171Z,-0.9
2016-11-29T00:55:22.162Z,-0.9
2016-11-29T00:55:32.155Z,-0.9
2016-11-29T00:55:42.163Z,-0.9
2016-11-29T00:55:52.141Z,-0.8
2016-11-29T00:56:02.133Z,-0.9
2016-11-29T00:56:12.127Z,-0.9
2016-11-29T00:56:22.120Z,-0.8
2016-11-29T00:56:32.113Z,-0.8
2016-11-29T00:56:42.106Z,-0.8
2016-11-29T00:56:52.093Z,-0.8
2016-11-29T00:57:02.089Z,-0.8
2016-11-29T00:57:12.083Z,-0.8
2016-11-29T00:57:22.076Z,-0.8
2016-11-29T00:57:32.066Z,-0.8
2016-11-29T00:57:42.397Z,-0.8
2016-11-29T00:57:52.053Z,-0.8
2016-11-29T00:58:02.046Z,-0.8
2016-11-29T00:58:12.039Z,-0.8
2016-11-29T00:58:22.033Z,-0.8
2016-11-29T00:58:32.027Z,-0.8
2016-11-29T00:58:42.020Z,-0.8
2016-11-29T00:58:52.012Z,-0.8
2016-11-29T00:59:02.004Z,-0.8
2016-11-29T00:59:12.010Z,-0.8
2016-11-29T00:59:21.990Z,-0.8
2016-11-29T00:59:31.985Z,-0.8
2016-11-29T00:59:41.975Z,-0.8
2016-11-29T00:59:51.971Z,-0.8
2016-11-29T01:00:01.961Z,-0.8
2016-11-29T01:00:11.954Z,-0.8
2016-11-29T01:00:21.946Z,-0.8
2016-11-29T01:00:31.941Z,-0.8
2016-11-29T01:00:41.935Z,-0.8
2016-11-29T01:00:51.925Z,-0.8
2016-11-29T01:01:01.918Z,-0.8
2016-11-29T01:01:11.915Z,-0.7
2016-11-29T01:01:21.906Z,-0.7
2016-11-29T01:01:31.900Z,-0.7
2016-11-29T01:01:41.912Z,-0.7
2016-11-29T01:01:51.884Z,-0.7
2016-11-29T01:02:01.879Z,-0.7
2016-11-29T01:02:11.872Z,-0.7
2016-11-29T01:02:21.865Z,-0.7
2016-11-29T01:02:31.859Z,-0.7
2016-11-29T01:02:41.849Z,-0.7
2016-11-29T01:02:51.845Z,-0.7
2016-11-29T01:03:01.836Z,-0.7
2016-11-29T01:03:11.829Z,-0.7
2016-11-29T01:03:21.822Z,-0.7
2016-11-29T01:03:31.815Z,-0.7
2016-11-29T01:03:41.809Z,-0.7
2016-11-29T01:03:51.800Z,-0.7
2016-11-29T01:04:01.793Z,-0.7
2016-11-29T01:04:12.122Z,-0.7
2016-11-29T01:04:21.781Z,-0.7
2016-11-29T01:04:31.771Z,-0.7
2016-11-29T01:04:41.765Z,-0.7
2016-11-29T01:04:51.756Z,-0.7
2016-11-29T01:05:01.748Z,-0.7
2016-11-29T01:05:11.744Z,-0.7
2016-11-29T01:05:21.738Z,-0.7
2016-11-29T01:05:31.731Z,-0.7
2016-11-29T01:05:41.724Z,-0.7
2016-11-29T01:05:51.714Z,-0.7
2016-11-29T01:06:01.709Z,-0.7
2016-11-29T01:06:11.700Z,-0.7
2016-11-29T01:06:21.694Z,-0.7
2016-11-29T01:06:31.690Z,-0.7
2016-11-29T01:06:41.684Z,-0.7
2016-11-29T01:06:51.675Z,-0.7
2016-11-29T01:07:01.668Z,-0.7
2016-11-29T01:07:11.661Z,-0.7
2016-11-29T01:07:21.651Z,-0.7
2016-11-29T01:07:31.643Z,-0.7
2016-11-29T01:07:41.637Z,-0.7
2016-11-29T01:07:51.633Z,-0.7
2016-11-29T01:08:01.625Z,-0.7
2016-11-29T01:08:11.616Z,-0.7
2016-11-29T01:08:21.609Z,-0.7
2016-11-29T01:08:31.606Z,-0.7
2016-11-29T01:08:41.597Z,-0.7
2016-11-29T01:08:51.591Z,-0.7
2016-11-29T01:09:01.611Z,-0.7
2016-11-29T01:09:11.578Z,-0.7
2016-11-29T01:09:21.569Z,-0.7
2016-11-29T01:09:31.560Z,-0.7
2016-11-29T01:09:41.555Z,-0.7
2016-11-29T01:09:51.547Z,-0.7
2016-11-29T01:10:01.540Z,-0.8
2016-11-29T01:10:11.535Z,-0.8
2016-11-29T01:10:21.528Z,-0.8
2016-11-29T01:10:31.519Z,-0.8
2016-11-29T01:10:41.512Z,-0.8
2016-11-29T01:10:51.506Z,-0.8
2016-11-29T01:11:01.500Z,-0.8
2016-11-29T01:11:11.490Z,-0.8
2016-11-29T01:11:21.484Z,-0.8
2016-11-29T01:11:31.475Z,-0.8
2016-11-29T01:11:41.470Z,-0.8
2016-11-29T01:11:51.461Z,-0.8
2016-11-29T01:12:01.457Z,-0.8
2016-11-29T01:12:11.448Z,-0.8
2016-11-29T01:12:21.442Z,-0.9
2016-11-29T01:12:31.434Z,-0.8
2016-11-29T01:12:41.534Z,-0.8
2016-11-29T01:12:51.421Z,-0.9
2016-11-29T01:13:01.413Z,-0.9
2016-11-29T01:13:11.405Z,-0.9
2016-11-29T01:13:21.400Z,-0.9
2016-11-29T01:13:31.390Z,-0.9
2016-11-29T01:13:41.388Z,-0.9
2016-11-29T01:13:51.379Z,-0.9
2016-11-29T01:14:02.039Z,-0.9
2016-11-29T01:14:11.362Z,-0.9
2016-11-29T01:14:21.357Z,-0.9
2016-11-29T01:14:31.349Z,-0.9
2016-11-29T01:14:41.344Z,-0.9
2016-11-29T01:14:51.335Z,-0.9
2016-11-29T01:15:01.330Z,-0.9
2016-11-29T01:15:11.322Z,-0.9
2016-11-29T01:15:21.315Z,-0.9
2016-11-29T01:15:31.308Z,-0.9
2016-11-29T01:15:41.302Z,-0.9
2016-11-29T01:15:51.294Z,-0.9
2016-11-29T01:16:01.286Z,-0.9
2016-11-29T01:16:11.280Z,-0.9
2016-11-29T01:16:21.273Z,-0.9
2016-11-29T01:16:31.270Z,-0.9
2016-11-29T01:16:41.260Z,-1
2016-11-29T01:16:51.253Z,-1
2016-11-29T01:17:01.244Z,-1
2016-11-29T01:17:11.238Z,-1
2016-11-29T01:17:21.231Z,-1
2016-11-29T01:17:31.223Z,-1
2016-11-29T01:17:41.217Z,-1
2016-11-29T01:17:51.209Z,-1
2016-11-29T01:18:01.202Z,-1
2016-11-29T01:18:11.195Z,-1
2016-11-29T01:18:21.189Z,-1.1
2016-11-29T01:18:31.183Z,-1.1
2016-11-29T01:18:41.174Z,-1.1
2016-11-29T01:18:51.168Z,-1.1
2016-11-29T01:19:01.161Z,-1.1
2016-11-29T01:19:11.152Z,-1.1
2016-11-29T01:19:21.251Z,-1.1
2016-11-29T01:19:31.139Z,-1.1
2016-11-29T01:19:41.131Z,-1.1
2016-11-29T01:19:51.126Z,-1.1
2016-11-29T01:20:01.118Z,-1.1
2016-11-29T01:20:11.111Z,-1.1
2016-11-29T01:20:21.105Z,-1.1
2016-11-29T01:20:31.100Z,-1.1
2016-11-29T01:20:41.088Z,-1.1
2016-11-29T01:20:51.083Z,-1.1
2016-11-29T01:21:01.074Z,-1.1
2016-11-29T01:21:11.070Z,-1.1
2016-11-29T01:21:21.061Z,-1.1
2016-11-29T01:21:31.055Z,-1.1
2016-11-29T01:21:41.049Z,-1.1
2016-11-29T01:21:51.040Z,-1.1
2016-11-29T01:22:01.035Z,-1.2
2016-11-29T01:22:11.026Z,-1.2
2016-11-29T01:22:21.021Z,-1.2
2016-11-29T01:22:31.014Z,-1.2
2016-11-29T01:22:41.023Z,-1.1
2016-11-29T01:22:50.999Z,-1.1
2016-11-29T01:23:00.994Z,-1.1
2016-11-29T01:23:10.982Z,-1.1
2016-11-29T01:23:20.978Z,-1.1
2016-11-29T01:23:30.969Z,-1.1
2016-11-29T01:23:40.963Z,-1.1
2016-11-29T01:23:50.957Z,-1.1
2016-11-29T01:24:01.056Z,-1.1
2016-11-29T01:24:10.942Z,-1.1
2016-11-29T01:24:20.936Z,-1.1
2016-11-29T01:24:30.927Z,-1.1
2016-11-29T01:24:40.922Z,-1.1
2016-11-29T01:24:50.914Z,-1.1
2016-11-29T01:25:00.906Z,-1.1
2016-11-29T01:25:10.897Z,-1.1
2016-11-29T01:25:20.891Z,-1.1
2016-11-29T01:25:30.887Z,-1.1
2016-11-29T01:25:40.881Z,-1.1
2016-11-29T01:25:50.871Z,-1.1
2016-11-29T01:26:00.866Z,-1.1
2016-11-29T01:26:10.857Z,-1.1
2016-11-29T01:26:20.854Z,-1.1
2016-11-29T01:26:30.844Z,-1.2
2016-11-29T01:26:40.839Z,-1.2
2016-11-29T01:26:50.830Z,-1.2
2016-11-29T01:27:00.822Z,-1.2
2016-11-29T01:27:10.815Z,-1.2
2016-11-29T01:27:20.807Z,-1.2
2016-11-29T01:27:30.803Z,-1.2
2016-11-29T01:27:40.794Z,-1.2
2016-11-29T01:27:50.790Z,-1.2
2016-11-29T01:28:00.778Z,-1.2
2016-11-29T01:28:10.774Z,-1.2
2016-11-29T01:28:20.784Z,-1.2
2016-11-29T01:28:30.757Z,-1.2
2016-11-29T01:28:40.753Z,-1.2
2016-11-29T01:28:50.744Z,-1.3
2016-11-29T01:29:00.736Z,-1.3
2016-11-29T01:29:10.732Z,-1.3
2016-11-29T01:29:20.724Z,-1.3
2016-11-29T01:29:30.720Z,-1.3
2016-11-29T01:29:40.709Z,-1.3
2016-11-29T01:29:50.701Z,-1.3
2016-11-29T01:30:00.697Z,-1.3
2016-11-29T01:30:10.689Z,-1.3
2016-11-29T01:30:20.682Z,-1.2
2016-11-29T01:30:30.674Z,-1.2
2016-11-29T01:30:40.669Z,-1.2
2016-11-29T01:30:50.659Z,-1.2
2016-11-29T01:31:00.654Z,-1.2
2016-11-29T01:31:10.648Z,-1.2
2016-11-29T01:31:20.658Z,-1.2
2016-11-29T01:31:30.633Z,-1.2
2016-11-29T01:31:40.624Z,-1.2
2016-11-29T01:31:50.618Z,-1.2
2016-11-29T01:32:00.946Z,-1.2
2016-11-29T01:32:10.604Z,-1.2
2016-11-29T01:32:20.598Z,-1.2
2016-11-29T01:32:30.591Z,-1.2
2016-11-29T01:32:40.583Z,-1.2
2016-11-29T01:32:50.575Z,-1.2
2016-11-29T01:33:00.570Z,-1.2
2016-11-29T01:33:10.561Z,-1.2
2016-11-29T01:33:20.553Z,-1.2
2016-11-29T01:33:30.546Z,-1.2
2016-11-29T01:33:40.541Z,-1.2
2016-11-29T01:33:50.560Z,-1.2
2016-11-29T01:34:00.529Z,-1.2
2016-11-29T01:34:10.518Z,-1.2
2016-11-29T01:34:20.512Z,-1.2
2016-11-29T01:34:30.507Z,-1.2
2016-11-29T01:34:40.499Z,-1.2
2016-11-29T01:34:50.491Z,-1.2
2016-11-29T01:35:00.485Z,-1.2
2016-11-29T01:35:10.477Z,-1.2
2016-11-29T01:35:20.469Z,-1.2
2016-11-29T01:35:30.463Z,-1.2
2016-11-29T01:35:40.471Z,-1.2
2016-11-29T01:35:50.449Z,-1.2
2016-11-29T01:36:00.776Z,-1.2
2016-11-29T01:36:10.434Z,-1.2
2016-11-29T01:36:20.444Z,-1.2
2016-11-29T01:36:30.421Z,-1.2
2016-11-29T01:36:40.414Z,-1.2
2016-11-29T01:36:50.407Z,-1.1
2016-11-29T01:37:00.502Z,-1.1
2016-11-29T01:37:10.393Z,-1.1
2016-11-29T01:37:20.386Z,-1.1
2016-11-29T01:37:30.378Z,-1.1
2016-11-29T01:37:40.374Z,-1.1
2016-11-29T01:37:50.366Z,-1.1
2016-11-29T01:38:00.360Z,-1.1
2016-11-29T01:38:10.349Z,-1.1
2016-11-29T01:38:20.344Z,-1.1
2016-11-29T01:38:30.337Z,-1.1
2016-11-29T01:38:40.330Z,-1.1
2016-11-29T01:38:50.322Z,-1.1
2016-11-29T01:39:00.316Z,-1.1
2016-11-29T01:39:10.310Z,-1.1
2016-11-29T01:39:20.320Z,-1.1
2016-11-29T01:39:30.294Z,-1.1
2016-11-29T01:39:40.288Z,-1.1
2016-11-29T01:39:50.282Z,-1.1
2016-11-29T01:40:00.274Z,-1.1
2016-11-29T01:40:10.265Z,-1.1
2016-11-29T01:40:20.261Z,-1.1
2016-11-29T01:40:30.585Z,-1.1
2016-11-29T01:40:40.246Z,-1.1
2016-11-29T01:40:50.238Z,-1.1
2016-11-29T01:41:00.231Z,-1.2
2016-11-29T01:41:10.225Z,-1.2
2016-11-29T01:41:20.217Z,-1.1
2016-11-29T01:41:30.211Z,-1.2
2016-11-29T01:41:40.205Z,-1.1
2016-11-29T01:41:50.195Z,-1.2
2016-11-29T01:42:00.189Z,-1.1
2016-11-29T01:42:10.181Z,-1.1
2016-11-29T01:42:20.175Z,-1.1
2016-11-29T01:42:30.186Z,-1.2
2016-11-29T01:42:40.161Z,-1.2
2016-11-29T01:42:50.151Z,-1.2
2016-11-29T01:43:00.151Z,-1.2
2016-11-29T01:43:10.158Z,-1.2
2016-11-29T01:43:20.132Z,-1.2
2016-11-29T01:43:30.123Z,-1.2
2016-11-29T01:43:40.119Z,-1.3
2016-11-29T01:43:50.113Z,-1.3
2016-11-29T01:44:00.437Z,-1.3
2016-11-29T01:44:10.098Z,-1.3
2016-11-29T01:44:20.092Z,-1.3
2016-11-29T01:44:30.080Z,-1.3
2016-11-29T01:44:40.078Z,-1.3
2016-11-29T01:44:50.068Z,-1.3
2016-11-29T01:45:00.064Z,-1.3
2016-11-29T01:45:10.054Z,-1.3
2016-11-29T01:45:20.047Z,-1.3
2016-11-29T01:45:30.042Z,-1.3
2016-11-29T01:45:40.032Z,-1.3
2016-11-29T01:45:50.026Z,-1.3
2016-11-29T01:46:00.019Z,-1.3
2016-11-29T01:46:10.012Z,-1.3
2016-11-29T01:46:20.007Z,-1.3
2016-11-29T01:46:30.000Z,-1.3
2016-11-29T01:46:39.990Z,-1.3
2016-11-29T01:46:49.985Z,-1.3
2016-11-29T01:46:59.977Z,-1.3
2016-11-29T01:47:09.971Z,-1.4
2016-11-29T01:47:19.963Z,-1.4
2016-11-29T01:47:29.954Z,-1.4
2016-11-29T01:47:39.949Z,-1.3
2016-11-29T01:47:49.944Z,-1.3
2016-11-29T01:47:59.935Z,-1.3
2016-11-29T01:48:09.926Z,-1.3
2016-11-29T01:48:19.922Z,-1.3
2016-11-29T01:48:29.911Z,-1.3
2016-11-29T01:48:39.907Z,-1.3
2016-11-29T01:48:49.897Z,-1.3
2016-11-29T01:48:59.892Z,-1.3
2016-11-29T01:49:09.886Z,-1.4
2016-11-29T01:49:19.878Z,-1.3
2016-11-29T01:49:29.871Z,-1.4
2016-11-29T01:49:39.866Z,-1.3
2016-11-29T01:49:49.858Z,-1.3
2016-11-29T01:49:59.851Z,-1.3
2016-11-29T01:50:09.842Z,-1.3
2016-11-29T01:50:19.836Z,-1.3
2016-11-29T01:50:29.830Z,-1.3
2016-11-29T01:50:39.820Z,-1.3
2016-11-29T01:50:49.814Z,-1.3
2016-11-29T01:50:59.912Z,-1.3
2016-11-29T01:51:09.800Z,-1.3
2016-11-29T01:51:19.796Z,-1.3
2016-11-29T01:51:29.786Z,-1.3
2016-11-29T01:51:39.780Z,-1.4
2016-11-29T01:51:50.110Z,-1.4
2016-11-29T01:51:59.765Z,-1.4
2016-11-29T01:52:09.758Z,-1.3
2016-11-29T01:52:19.759Z,-1.3
2016-11-29T01:52:29.744Z,-1.3
2016-11-29T01:52:39.737Z,-1.3
2016-11-29T01:52:49.729Z,-1.3
2016-11-29T01:52:59.721Z,-1.3
2016-11-29T01:53:09.716Z,-1.3
2016-11-29T01:53:19.709Z,-1.3
2016-11-29T01:53:29.702Z,-1.3
2016-11-29T01:53:39.697Z,-1.3
2016-11-29T01:53:49.689Z,-1.3
2016-11-29T01:53:59.681Z,-1.3
2016-11-29T01:54:09.674Z,-1.3
2016-11-29T01:54:19.668Z,-1.3
2016-11-29T01:54:29.660Z,-1.3
2016-11-29T01:54:39.654Z,-1.3
2016-11-29T01:54:49.647Z,-1.3
2016-11-29T01:54:59.642Z,-1.3
2016-11-29T01:55:09.630Z,-1.3
2016-11-29T01:55:19.625Z,-1.3
2016-11-29T01:55:29.618Z,-1.3
2016-11-29T01:55:39.610Z,-1.3
2016-11-29T01:55:49.604Z,-1.3
2016-11-29T01:55:59.596Z,-1.3
2016-11-29T01:56:09.590Z,-1.3
2016-11-29T01:56:19.584Z,-1.3
2016-11-29T01:56:29.575Z,-1.3
2016-11-29T01:56:39.567Z,-1.4
2016-11-29T01:56:49.558Z,-1.4
2016-11-29T01:56:59.553Z,-1.4
2016-11-29T01:57:09.547Z,-1.4
2016-11-29T01:57:19.539Z,-1.4
2016-11-29T02:18:56.786Z,-1.5
2016-11-29T02:19:06.754Z,-1.5
2016-11-29T02:19:16.751Z,-1.5
2016-11-29T02:19:26.742Z,-1.5
2016-11-29T02:19:36.735Z,-1.5
2016-11-29T02:19:46.727Z,-1.5
2016-11-29T02:19:56.720Z,-1.6
2016-11-29T02:20:06.712Z,-1.6
2016-11-29T02:20:17.039Z,-1.6
2016-11-29T02:20:26.700Z,-1.6
2016-11-29T02:20:36.708Z,-1.6
2016-11-29T02:20:46.682Z,-1.6
2016-11-29T02:20:56.679Z,-1.6
2016-11-29T02:21:06.669Z,-1.6
2016-11-29T02:21:16.664Z,-1.6
2016-11-29T02:21:26.665Z,-1.6
2016-11-29T02:21:36.647Z,-1.6
2016-11-29T02:21:46.642Z,-1.6
2016-11-29T02:21:56.633Z,-1.6
2016-11-29T02:22:06.628Z,-1.6
2016-11-29T02:22:16.622Z,-1.6
2016-11-29T02:22:26.615Z,-1.6
2016-11-29T02:22:36.606Z,-1.6
2016-11-29T02:22:46.599Z,-1.6
2016-11-29T02:22:56.591Z,-1.5
2016-11-29T02:23:06.687Z,-1.6
2016-11-29T02:23:16.577Z,-1.6
2016-11-29T02:23:26.571Z,-1.6
2016-11-29T02:23:36.564Z,-1.6
2016-11-29T02:23:46.558Z,-1.6
2016-11-29T02:23:56.550Z,-1.6
2016-11-29T02:24:06.542Z,-1.6
2016-11-29T02:24:16.535Z,-1.6
2016-11-29T02:24:26.530Z,-1.6
2016-11-29T02:24:36.520Z,-1.6
2016-11-29T02:24:46.513Z,-1.5
2016-11-29T02:24:56.508Z,-1.5
2016-11-29T02:25:06.499Z,-1.5
2016-11-29T02:25:16.494Z,-1.5
2016-11-29T02:25:26.486Z,-1.5
2016-11-29T02:25:36.479Z,-1.5
2016-11-29T02:25:46.472Z,-1.5
2016-11-29T02:25:56.464Z,-1.5
2016-11-29T02:26:06.457Z,-1.5
2016-11-29T02:26:16.451Z,-1.5
2016-11-29T02:26:26.443Z,-1.5
2016-11-29T02:26:36.436Z,-1.5
2016-11-29T02:26:46.428Z,-1.6
2016-11-29T02:26:56.425Z,-1.6
2016-11-29T02:27:06.415Z,-1.6
2016-11-29T02:27:16.409Z,-1.6
2016-11-29T02:27:26.402Z,-1.6
2016-11-29T02:27:36.396Z,-1.6
2016-11-29T02:27:46.386Z,-1.6
2016-11-29T02:27:56.378Z,-1.6
2016-11-29T02:28:06.371Z,-1.6
2016-11-29T02:28:16.363Z,-1.6
2016-11-29T02:28:26.358Z,-1.6
2016-11-29T02:28:36.351Z,-1.6
2016-11-29T02:28:46.344Z,-1.6
2016-11-29T02:28:56.338Z,-1.6
2016-11-29T02:29:06.663Z,-1.6
2016-11-29T02:29:16.326Z,-1.6
2016-11-29T02:29:26.316Z,-1.6
2016-11-29T02:29:36.309Z,-1.7
2016-11-29T02:29:46.406Z,-1.7
2016-11-29T02:29:56.295Z,-1.7
2016-11-29T02:30:06.286Z,-1.7
2016-11-29T02:30:16.613Z,-1.7
2016-11-29T02:30:26.275Z,-1.7
2016-11-29T02:30:36.268Z,-1.7
2016-11-29T02:30:46.258Z,-1.7
2016-11-29T02:30:56.252Z,-1.7
2016-11-29T02:31:06.244Z,-1.7
2016-11-29T02:31:16.236Z,-1.7
2016-11-29T02:31:26.233Z,-1.7
2016-11-29T02:31:36.224Z,-1.7
2016-11-29T02:31:46.215Z,-1.6
2016-11-29T02:31:56.208Z,-1.6
2016-11-29T02:32:06.201Z,-1.6
2016-11-29T02:32:16.195Z,-1.6
2016-11-29T02:32:26.187Z,-1.6
2016-11-29T02:32:36.181Z,-1.7
2016-11-29T02:32:46.510Z,-1.7
2016-11-29T02:32:56.169Z,-1.6
2016-11-29T02:33:06.159Z,-1.7
2016-11-29T02:33:16.152Z,-1.6
2016-11-29T02:33:26.145Z,-1.6
2016-11-29T02:33:36.139Z,-1.6
2016-11-29T02:33:46.133Z,-1.6
2016-11-29T02:33:56.124Z,-1.6
2016-11-29T02:34:06.118Z,-1.6
2016-11-29T02:34:16.109Z,-1.6
2016-11-29T02:34:26.102Z,-1.6
2016-11-29T02:34:36.095Z,-1.6
2016-11-29T02:34:46.089Z,-1.6
2016-11-29T02:34:56.084Z,-1.6